Wetterdaten: Woche 09.07.07 - 15.07.07 (KW28)
Datum Zeit Temperatur Luftfeuchte Luftdruck Niederschlag Wind Richtung Sonnenschein Solar Taupunkt Windchill Windben
09.07.2007 00:00 17.4 C 87 % 1014.0 hPa 0.0 l/m 2.6 km/h (1 Bft) S-SO 0.00 h 0 W/m 15.2 C 17.4 C 5.1 km/h (1 Bft)
09.07.2007 01:00 16.9 C 90 % 1014.1 hPa 0.0 l/m 1.5 km/h (1 Bft) S-SO 0.00 h 0 W/m 15.3 C 16.9 C 3.0 km/h (1 Bft)
09.07.2007 02:00 16.7 C 92 % 1013.8 hPa 0.2 l/m 2.2 km/h (1 Bft) S-SO 0.00 h 0 W/m 15.4 C 16.7 C 4.8 km/h (1 Bft)
09.07.2007 03:00 16.3 C 95 % 1013.4 hPa 0.0 l/m 0.8 km/h (0 Bft) W-NW 0.00 h 0 W/m 15.5 C 16.3 C 1.7 km/h (1 Bft)
09.07.2007 04:00 16.0 C 94 % 1013.4 hPa 0.4 l/m 1.6 km/h (1 Bft) W 0.00 h 0 W/m 15.0 C 16.0 C 3.4 km/h (1 Bft)
09.07.2007 05:00 15.6 C 95 % 1013.3 hPa 0.0 l/m 1.4 km/h (1 Bft) S-SO 0.00 h 0 W/m 14.7 C 15.6 C 3.2 km/h (1 Bft)
09.07.2007 06:00 15.5 C 94 % 1013.4 hPa 0.0 l/m 0.6 km/h (0 Bft) W 0.00 h 18 W/m 14.5 C 15.5 C 2.1 km/h (1 Bft)
09.07.2007 07:00 15.9 C 93 % 1013.7 hPa 0.2 l/m 2.8 km/h (1 Bft) S 0.00 h 59 W/m 14.7 C 15.9 C 5.7 km/h (1 Bft)
09.07.2007 08:00 15.7 C 94 % 1013.8 hPa 0.0 l/m 5.4 km/h (1 Bft) W 0.00 h 59 W/m 14.7 C 15.7 C 9.4 km/h (2 Bft)
09.07.2007 09:00 15.2 C 95 % 1014.3 hPa 1.8 l/m 8.8 km/h (2 Bft) W 0.00 h 70 W/m 14.4 C 15.2 C 14.3 km/h (3 Bft)
09.07.2007 10:00 14.3 C 97 % 1014.5 hPa 0.0 l/m 8.0 km/h (2 Bft) W 0.00 h 78 W/m 13.9 C 14.3 C 12.8 km/h (3 Bft)
09.07.2007 11:00 14.0 C 97 % 1014.6 hPa 0.4 l/m 8.3 km/h (2 Bft) W 0.00 h 90 W/m 13.6 C 14.0 C 13.1 km/h (3 Bft)
09.07.2007 12:00 13.9 C 95 % 1015.1 hPa 0.0 l/m 8.6 km/h (2 Bft) W 0.00 h 122 W/m 13.1 C 13.9 C 14.3 km/h (3 Bft)
09.07.2007 13:00 14.8 C 89 % 1014.8 hPa 0.0 l/m 6.6 km/h (2 Bft) W 0.00 h 304 W/m 12.9 C 14.8 C 11.1 km/h (2 Bft)
09.07.2007 14:00 16.1 C 83 % 1014.7 hPa 0.0 l/m 3.5 km/h (1 Bft) W-SW 0.00 h 281 W/m 13.3 C 16.1 C 6.8 km/h (2 Bft)
09.07.2007 15:00 16.1 C 83 % 1014.8 hPa 0.0 l/m 3.1 km/h (1 Bft) S 0.07 h 276 W/m 13.3 C 16.1 C 6.7 km/h (2 Bft)
09.07.2007 16:00 16.2 C 83 % 1014.4 hPa 0.0 l/m 4.0 km/h (1 Bft) SW 0.00 h 247 W/m 13.3 C 16.2 C 8.1 km/h (2 Bft)
09.07.2007 17:00 14.8 C 91 % 1014.2 hPa 0.6 l/m 3.4 km/h (1 Bft) S-SO 0.00 h 123 W/m 13.4 C 14.8 C 7.5 km/h (2 Bft)
09.07.2007 18:00 14.3 C 93 % 1014.4 hPa 0.6 l/m 4.6 km/h (1 Bft) W 0.13 h 184 W/m 13.3 C 14.3 C 9.0 km/h (2 Bft)
09.07.2007 19:00 13.9 C 86 % 1014.5 hPa 0.0 l/m 6.7 km/h (2 Bft) W 0.20 h 144 W/m 11.7 C 13.9 C 10.9 km/h (2 Bft)
09.07.2007 20:00 13.9 C 82 % 1015.0 hPa 0.0 l/m 3.7 km/h (1 Bft) W 0.17 h 70 W/m 10.8 C 13.9 C 6.3 km/h (2 Bft)
09.07.2007 21:00 13.1 C 83 % 1015.3 hPa 0.0 l/m 1.3 km/h (1 Bft) W-SW 0.00 h 8 W/m 10.3 C 13.1 C 3.1 km/h (1 Bft)
09.07.2007 22:00 12.8 C 85 % 1015.9 hPa 0.2 l/m 1.6 km/h (1 Bft) S-SO 0.00 h 0 W/m 10.3 C 12.8 C 3.6 km/h (1 Bft)
09.07.2007 23:00 12.0 C 93 % 1016.5 hPa 0.4 l/m 1.7 km/h (1 Bft) S-SO 0.00 h 0 W/m 10.9 C 12.0 C 4.3 km/h (1 Bft)
10.07.2007 00:00 11.5 C 93 % 1016.5 hPa 0.2 l/m 0.8 km/h (0 Bft) S 0.00 h 0 W/m 10.4 C 11.5 C 2.9 km/h (1 Bft)
10.07.2007 01:00 11.0 C 96 % 1016.3 hPa 0.0 l/m 2.3 km/h (1 Bft) W 0.00 h 0 W/m 10.4 C 11.0 C 4.3 km/h (1 Bft)
10.07.2007 02:00 10.6 C 95 % 1015.9 hPa 0.2 l/m 7.9 km/h (2 Bft) W 0.00 h 0 W/m 9.8 C 10.6 C 12.6 km/h (3 Bft)
10.07.2007 03:00 10.1 C 93 % 1015.9 hPa 0.4 l/m 8.1 km/h (2 Bft) W 0.00 h 0 W/m 9.1 C 10.0 C 13.2 km/h (3 Bft)
10.07.2007 04:00 10.1 C 93 % 1015.8 hPa 0.2 l/m 1.0 km/h (0 Bft) S-SO 0.00 h 0 W/m 9.1 C 10.1 C 2.8 km/h (1 Bft)
10.07.2007 05:00 10.2 C 96 % 1015.8 hPa 0.0 l/m 0.6 km/h (0 Bft) S-SO 0.00 h 0 W/m 9.6 C 10.2 C 2.0 km/h (1 Bft)
10.07.2007 06:00 10.5 C 97 % 1016.0 hPa 0.0 l/m 0.9 km/h (0 Bft) S-SO 0.00 h 31 W/m 10.0 C 10.5 C 3.0 km/h (1 Bft)
10.07.2007 07:00 10.9 C 97 % 1016.1 hPa 0.0 l/m 1.4 km/h (1 Bft) SW 0.00 h 79 W/m 10.4 C 10.9 C 3.9 km/h (1 Bft)
10.07.2007 08:00 11.1 C 94 % 1016.0 hPa 0.2 l/m 1.4 km/h (1 Bft) S 0.00 h 73 W/m 10.2 C 11.1 C 3.7 km/h (1 Bft)
10.07.2007 09:00 11.8 C 93 % 1015.8 hPa 0.0 l/m 2.2 km/h (1 Bft) S-SO 0.00 h 147 W/m 10.7 C 11.8 C 4.9 km/h (1 Bft)
10.07.2007 10:00 12.7 C 86 % 1015.5 hPa 0.0 l/m 8.9 km/h (2 Bft) W 0.10 h 281 W/m 10.4 C 12.7 C 14.7 km/h (3 Bft)
10.07.2007 11:00 12.7 C 87 % 1015.8 hPa 0.0 l/m 7.2 km/h (2 Bft) W 0.15 h 371 W/m 10.6 C 12.7 C 11.6 km/h (2 Bft)
10.07.2007 12:00 12.8 C 84 % 1015.8 hPa 0.4 l/m 10.5 km/h (2 Bft) W 0.03 h 324 W/m 10.1 C 12.8 C 15.9 km/h (3 Bft)
10.07.2007 13:00 12.9 C 87 % 1015.7 hPa 0.2 l/m 8.5 km/h (2 Bft) W 0.18 h 347 W/m 10.7 C 12.9 C 13.1 km/h (3 Bft)
10.07.2007 14:00 14.7 C 83 % 1015.3 hPa 0.0 l/m 4.0 km/h (1 Bft) W-SW 0.63 h 648 W/m 11.8 C 14.7 C 7.1 km/h (2 Bft)
10.07.2007 15:00 14.7 C 77 % 1015.0 hPa 0.2 l/m 5.7 km/h (1 Bft) S-SO 0.22 h 306 W/m 10.7 C 14.7 C 10.4 km/h (2 Bft)
10.07.2007 16:00 11.5 C 90 % 1015.7 hPa 3.4 l/m 10.2 km/h (2 Bft) W 0.00 h 63 W/m 9.9 C 11.5 C 17.1 km/h (3 Bft)
10.07.2007 17:00 11.5 C 97 % 1016.0 hPa 0.2 l/m 6.5 km/h (2 Bft) W 0.00 h 179 W/m 11.0 C 11.5 C 10.1 km/h (2 Bft)
10.07.2007 18:00 11.9 C 95 % 1015.9 hPa 0.0 l/m 4.8 km/h (1 Bft) W 0.00 h 183 W/m 11.1 C 11.9 C 8.0 km/h (2 Bft)
10.07.2007 19:00 12.1 C 91 % 1016.0 hPa 0.0 l/m 4.0 km/h (1 Bft) W 0.03 h 156 W/m 10.7 C 12.1 C 6.3 km/h (2 Bft)
10.07.2007 20:00 11.9 C 89 % 1016.1 hPa 0.0 l/m 0.6 km/h (0 Bft) W 0.00 h 54 W/m 10.2 C 11.9 C 1.9 km/h (1 Bft)
10.07.2007 21:00 11.5 C 91 % 1016.2 hPa 0.2 l/m 1.4 km/h (1 Bft) S-SO 0.00 h 0 W/m 10.2 C 11.5 C 3.3 km/h (1 Bft)
10.07.2007 22:00 11.1 C 95 % 1016.6 hPa 0.6 l/m 2.0 km/h (1 Bft) SO 0.00 h 0 W/m 10.3 C 11.1 C 3.5 km/h (1 Bft)
10.07.2007 23:00 11.0 C 96 % 1016.6 hPa 0.2 l/m 0.9 km/h (0 Bft) S-SO 0.00 h 0 W/m 10.4 C 11.0 C 2.5 km/h (1 Bft)
11.07.2007 00:00 10.9 C 97 % 1016.7 hPa 0.2 l/m 0.2 km/h (0 Bft) S-SW 0.00 h 0 W/m 10.4 C 10.9 C 1.1 km/h (1 Bft)
11.07.2007 01:00 10.8 C 98 % 1016.6 hPa 0.4 l/m 0.1 km/h (0 Bft) S 0.00 h 0 W/m 10.6 C 10.8 C 0.7 km/h (0 Bft)
11.07.2007 02:00 10.8 C 99 % 1016.1 hPa 0.6 l/m 0.5 km/h (0 Bft) S-SO 0.00 h 0 W/m 10.7 C 10.8 C 1.6 km/h (1 Bft)
11.07.2007 03:00 10.8 C 99 % 1016.0 hPa 0.2 l/m 0.9 km/h (0 Bft) S-SO 0.00 h 0 W/m 10.6 C 10.8 C 3.0 km/h (1 Bft)
11.07.2007 04:00 10.6 C 98 % 1016.3 hPa 0.8 l/m 1.0 km/h (0 Bft) S 0.00 h 0 W/m 10.4 C 10.6 C 2.9 km/h (1 Bft)
11.07.2007 05:00 10.6 C 98 % 1016.3 hPa 0.2 l/m 0.9 km/h (0 Bft) S 0.00 h 0 W/m 10.4 C 10.6 C 2.3 km/h (1 Bft)
11.07.2007 06:00 10.7 C 97 % 1016.4 hPa 0.4 l/m 1.1 km/h (0 Bft) S-SO 0.00 h 22 W/m 10.2 C 10.7 C 2.9 km/h (1 Bft)
11.07.2007 07:00 11.0 C 98 % 1016.7 hPa 1.2 l/m 1.0 km/h (0 Bft) S-SO 0.00 h 44 W/m 10.7 C 11.0 C 3.0 km/h (1 Bft)
11.07.2007 08:00 11.5 C 98 % 1017.0 hPa 0.0 l/m 0.7 km/h (0 Bft) S 0.00 h 94 W/m 11.3 C 11.5 C 2.7 km/h (1 Bft)
11.07.2007 09:00 12.4 C 96 % 1017.1 hPa 0.2 l/m 2.0 km/h (1 Bft) S-SO 0.08 h 178 W/m 11.9 C 12.4 C 4.9 km/h (1 Bft)
11.07.2007 10:00 12.5 C 97 % 1017.2 hPa 1.0 l/m 1.6 km/h (1 Bft) S-SO 0.02 h 181 W/m 12.0 C 12.5 C 4.1 km/h (1 Bft)
11.07.2007 11:00 13.3 C 95 % 1017.1 hPa 0.0 l/m 1.8 km/h (1 Bft) S-SO 0.00 h 217 W/m 12.5 C 13.3 C 4.7 km/h (1 Bft)
11.07.2007 12:00 15.0 C 88 % 1016.9 hPa 0.0 l/m 2.5 km/h (1 Bft) S-SW 0.28 h 471 W/m 13.0 C 15.0 C 5.6 km/h (1 Bft)
11.07.2007 13:00 14.1 C 92 % 1017.0 hPa 5.6 l/m 2.5 km/h (1 Bft) W-NW 0.00 h 237 W/m 12.8 C 14.1 C 4.5 km/h (1 Bft)
11.07.2007 14:00 14.9 C 91 % 1017.0 hPa 0.0 l/m 1.3 km/h (1 Bft) S 0.20 h 399 W/m 13.4 C 14.9 C 3.1 km/h (1 Bft)
11.07.2007 15:00 15.1 C 88 % 1016.7 hPa 0.0 l/m 6.2 km/h (2 Bft) W 0.07 h 288 W/m 13.2 C 15.1 C 10.7 km/h (2 Bft)
11.07.2007 16:00 13.2 C 91 % 1017.2 hPa 0.6 l/m 3.5 km/h (1 Bft) S-SO 0.03 h 246 W/m 11.8 C 13.2 C 6.8 km/h (2 Bft)
11.07.2007 17:00 14.9 C 89 % 1017.3 hPa 0.0 l/m 4.3 km/h (1 Bft) W 0.10 h 270 W/m 13.1 C 14.9 C 7.7 km/h (2 Bft)
11.07.2007 18:00 14.9 C 86 % 1017.6 hPa 0.0 l/m 2.3 km/h (1 Bft) W-SW 0.03 h 135 W/m 12.6 C 14.9 C 4.7 km/h (1 Bft)
11.07.2007 19:00 14.6 C 85 % 1017.9 hPa 0.0 l/m 0.7 km/h (0 Bft) W-SW 0.00 h 83 W/m 12.1 C 14.6 C 2.5 km/h (1 Bft)
11.07.2007 20:00 14.3 C 87 % 1018.1 hPa 0.0 l/m 1.1 km/h (1 Bft) S-SO 0.00 h 23 W/m 12.2 C 14.3 C 3.2 km/h (1 Bft)
11.07.2007 21:00 13.8 C 90 % 1018.3 hPa 0.0 l/m 2.6 km/h (1 Bft) S-SO 0.00 h 5 W/m 12.1 C 13.8 C 5.7 km/h (1 Bft)
11.07.2007 22:00 13.5 C 91 % 1018.8 hPa 0.0 l/m 1.2 km/h (1 Bft) S 0.00 h 0 W/m 12.1 C 13.5 C 2.6 km/h (1 Bft)
11.07.2007 23:00 13.1 C 90 % 1019.1 hPa 0.0 l/m 2.5 km/h (1 Bft) S-SO 0.00 h 0 W/m 11.4 C 13.1 C 5.3 km/h (1 Bft)
12.07.2007 00:00 12.8 C 90 % 1019.2 hPa 0.0 l/m 0.9 km/h (0 Bft) S 0.00 h 0 W/m 11.2 C 12.8 C 2.9 km/h (1 Bft)
12.07.2007 01:00 12.7 C 92 % 1019.5 hPa 0.4 l/m 0.4 km/h (0 Bft) S 0.00 h 0 W/m 11.5 C 12.7 C 1.4 km/h (1 Bft)
12.07.2007 02:00 12.6 C 95 % 1019.6 hPa 0.0 l/m 0.5 km/h (0 Bft) S-SO 0.00 h 0 W/m 11.8 C 12.6 C 2.1 km/h (1 Bft)
12.07.2007 03:00 12.6 C 93 % 1019.6 hPa 0.0 l/m 2.6 km/h (1 Bft) S-SO 0.00 h 0 W/m 11.5 C 12.6 C 4.6 km/h (1 Bft)
12.07.2007 04:00 12.6 C 93 % 1019.6 hPa 0.0 l/m 1.7 km/h (1 Bft) S-SO 0.00 h 0 W/m 11.4 C 12.6 C 4.2 km/h (1 Bft)
12.07.2007 05:00 12.5 C 95 % 1019.7 hPa 0.0 l/m 1.6 km/h (1 Bft) S-SO 0.00 h 0 W/m 11.8 C 12.5 C 4.1 km/h (1 Bft)
12.07.2007 06:00 12.6 C 96 % 1020.0 hPa 0.2 l/m 2.3 km/h (1 Bft) S-SO 0.00 h 26 W/m 12.1 C 12.6 C 5.4 km/h (1 Bft)
12.07.2007 07:00 12.9 C 95 % 1020.2 hPa 0.0 l/m 2.6 km/h (1 Bft) S-SO 0.00 h 77 W/m 12.1 C 12.9 C 5.7 km/h (1 Bft)
12.07.2007 08:00 13.9 C 92 % 1020.6 hPa 0.0 l/m 2.8 km/h (1 Bft) S-SO 0.12 h 175 W/m 12.5 C 13.9 C 6.3 km/h (2 Bft)
12.07.2007 09:00 15.2 C 88 % 1020.6 hPa 0.0 l/m 2.3 km/h (1 Bft) S-SO 0.10 h 277 W/m 13.1 C 15.2 C 5.7 km/h (1 Bft)
12.07.2007 10:00 17.0 C 80 % 1020.4 hPa 0.0 l/m 3.9 km/h (1 Bft) S-SO 0.50 h 530 W/m 13.4 C 17.0 C 7.5 km/h (2 Bft)
12.07.2007 11:00 16.6 C 79 % 1020.6 hPa 0.0 l/m 2.4 km/h (1 Bft) W 0.05 h 241 W/m 12.9 C 16.6 C 4.5 km/h (1 Bft)
12.07.2007 12:00 15.9 C 80 % 1020.9 hPa 0.0 l/m 4.5 km/h (1 Bft) W-NW 0.00 h 186 W/m 12.3 C 15.9 C 7.2 km/h (2 Bft)
12.07.2007 13:00 18.3 C 70 % 1020.5 hPa 0.0 l/m 6.9 km/h (2 Bft) W 0.50 h 601 W/m 12.8 C 18.3 C 11.4 km/h (2 Bft)
12.07.2007 14:00 20.5 C 61 % 1019.9 hPa 0.0 l/m 8.1 km/h (2 Bft) W 0.70 h 776 W/m 12.6 C 20.5 C 13.2 km/h (3 Bft)
12.07.2007 15:00 20.1 C 61 % 1019.7 hPa 0.0 l/m 6.7 km/h (2 Bft) W 0.27 h 443 W/m 12.4 C 20.1 C 11.2 km/h (2 Bft)
12.07.2007 16:00 19.7 C 61 % 1019.7 hPa 0.0 l/m 6.5 km/h (2 Bft) W 0.08 h 258 W/m 11.8 C 19.7 C 10.2 km/h (2 Bft)
12.07.2007 17:00 21.1 C 57 % 1019.4 hPa 0.0 l/m 7.1 km/h (2 Bft) W 0.60 h 438 W/m 12.3 C 21.1 C 11.2 km/h (2 Bft)
12.07.2007 18:00 21.6 C 53 % 1019.1 hPa 0.0 l/m 8.9 km/h (2 Bft) W 0.90 h 351 W/m 11.5 C 21.6 C 13.8 km/h (3 Bft)
12.07.2007 19:00 21.0 C 54 % 1019.2 hPa 0.0 l/m 9.0 km/h (2 Bft) W-NW 0.92 h 192 W/m 11.3 C 21.0 C 13.5 km/h (3 Bft)
12.07.2007 20:00 19.0 C 63 % 1019.6 hPa 0.0 l/m 3.9 km/h (1 Bft) W 0.13 h 41 W/m 11.8 C 19.0 C 6.3 km/h (2 Bft)
12.07.2007 21:00 16.1 C 77 % 1019.8 hPa 0.0 l/m 3.6 km/h (1 Bft) O-SO 0.00 h 7 W/m 12.0 C 16.1 C 4.9 km/h (1 Bft)
12.07.2007 22:00 14.5 C 84 % 1020.5 hPa 0.0 l/m 2.8 km/h (1 Bft) O-SO 0.00 h 0 W/m 11.9 C 14.5 C 4.1 km/h (1 Bft)
12.07.2007 23:00 14.3 C 88 % 1020.7 hPa 0.0 l/m 2.5 km/h (1 Bft) SO 0.00 h 0 W/m 12.3 C 14.3 C 3.9 km/h (1 Bft)
13.07.2007 00:00 14.3 C 88 % 1020.8 hPa 0.0 l/m 0.4 km/h (0 Bft) SO 0.00 h 0 W/m 12.3 C 14.3 C 1.1 km/h (1 Bft)
13.07.2007 01:00 14.2 C 88 % 1020.8 hPa 0.0 l/m 1.3 km/h (1 Bft) SO 0.00 h 0 W/m 12.3 C 14.2 C 2.2 km/h (1 Bft)
13.07.2007 02:00 13.5 C 92 % 1020.7 hPa 0.0 l/m 1.1 km/h (0 Bft) SO 0.00 h 0 W/m 12.2 C 13.5 C 1.9 km/h (1 Bft)
13.07.2007 03:00 13.1 C 93 % 1020.3 hPa 0.0 l/m 2.1 km/h (1 Bft) O-SO 0.00 h 0 W/m 12.1 C 13.1 C 3.3 km/h (1 Bft)
13.07.2007 04:00 13.2 C 94 % 1020.5 hPa 0.0 l/m 0.4 km/h (0 Bft) O-SO 0.00 h 0 W/m 12.4 C 13.2 C 0.8 km/h (0 Bft)
13.07.2007 05:00 12.6 C 95 % 1020.4 hPa 0.0 l/m 1.3 km/h (1 Bft) O-SO 0.00 h 7 W/m 11.9 C 12.6 C 2.4 km/h (1 Bft)
13.07.2007 06:00 12.5 C 96 % 1020.3 hPa 0.0 l/m 0.6 km/h (0 Bft) O-SO 0.00 h 20 W/m 11.9 C 12.5 C 1.1 km/h (1 Bft)
13.07.2007 07:00 13.6 C 95 % 1020.3 hPa 0.0 l/m 0.0 km/h (0 Bft) O-SO 0.88 h 183 W/m 12.8 C 13.6 C 0.3 km/h (0 Bft)
13.07.2007 08:00 16.3 C 84 % 1020.2 hPa 0.0 l/m 0.2 km/h (0 Bft) SO 1.00 h 349 W/m 13.6 C 16.3 C 0.9 km/h (0 Bft)
13.07.2007 09:00 18.8 C 75 % 1020.0 hPa 0.0 l/m 1.7 km/h (1 Bft) SO 1.00 h 510 W/m 14.2 C 18.8 C 3.8 km/h (1 Bft)
13.07.2007 10:00 21.2 C 67 % 1019.3 hPa 0.0 l/m 1.4 km/h (1 Bft) W 1.00 h 650 W/m 14.8 C 21.2 C 3.2 km/h (1 Bft)
13.07.2007 11:00 22.8 C 60 % 1018.9 hPa 0.0 l/m 3.0 km/h (1 Bft) W 1.00 h 756 W/m 14.5 C 22.8 C 5.0 km/h (1 Bft)
13.07.2007 12:00 23.8 C 55 % 1018.5 hPa 0.0 l/m 3.1 km/h (1 Bft) W-NW 1.00 h 830 W/m 14.1 C 23.8 C 5.3 km/h (1 Bft)
13.07.2007 13:00 25.2 C 53 % 1018.0 hPa 0.0 l/m 3.1 km/h (1 Bft) N-NW 1.00 h 857 W/m 14.8 C 25.2 C 5.4 km/h (1 Bft)
13.07.2007 14:00 26.4 C 51 % 1017.3 hPa 0.0 l/m 3.0 km/h (1 Bft) N-NW 1.00 h 835 W/m 15.4 C 26.4 C 5.0 km/h (1 Bft)
13.07.2007 15:00 27.7 C 49 % 1016.8 hPa 0.0 l/m 3.1 km/h (1 Bft) N-NW 1.00 h 768 W/m 15.9 C 27.7 C 5.5 km/h (1 Bft)
13.07.2007 16:00 28.4 C 44 % 1016.4 hPa 0.0 l/m 4.4 km/h (1 Bft) W-NW 1.00 h 664 W/m 15.0 C 28.4 C 6.5 km/h (2 Bft)
13.07.2007 17:00 28.2 C 43 % 1016.2 hPa 0.0 l/m 2.7 km/h (1 Bft) W 1.00 h 526 W/m 14.5 C 28.2 C 4.7 km/h (1 Bft)
13.07.2007 18:00 28.5 C 42 % 1015.8 hPa 0.0 l/m 2.9 km/h (1 Bft) W-SW 1.00 h 369 W/m 14.2 C 28.5 C 4.8 km/h (1 Bft)
13.07.2007 19:00 27.9 C 45 % 1015.6 hPa 0.0 l/m 1.9 km/h (1 Bft) W 1.00 h 205 W/m 14.7 C 27.9 C 3.4 km/h (1 Bft)
13.07.2007 20:00 25.7 C 53 % 1015.4 hPa 0.0 l/m 0.3 km/h (0 Bft) S-SW 0.28 h 59 W/m 15.4 C 25.7 C 0.9 km/h (0 Bft)
13.07.2007 21:00 21.4 C 72 % 1015.9 hPa 0.0 l/m 3.7 km/h (1 Bft) O-SO 0.00 h 7 W/m 16.1 C 21.4 C 4.9 km/h (1 Bft)
13.07.2007 22:00 19.2 C 79 % 1016.4 hPa 0.0 l/m 2.9 km/h (1 Bft) O-SO 0.00 h 0 W/m 15.4 C 19.2 C 4.4 km/h (1 Bft)
13.07.2007 23:00 17.5 C 85 % 1016.8 hPa 0.0 l/m 0.3 km/h (0 Bft) O-SO 0.00 h 0 W/m 15.0 C 17.5 C 0.9 km/h (0 Bft)
14.07.2007 00:00 16.4 C 89 % 1017.0 hPa 0.0 l/m 0.5 km/h (0 Bft) O-SO 0.00 h 0 W/m 14.6 C 16.4 C 1.0 km/h (0 Bft)
14.07.2007 01:00 15.6 C 92 % 1017.2 hPa 0.0 l/m 1.0 km/h (0 Bft) O-SO 0.00 h 0 W/m 14.2 C 15.6 C 2.2 km/h (1 Bft)
14.07.2007 02:00 14.8 C 94 % 1017.3 hPa 0.0 l/m 0.7 km/h (0 Bft) O-SO 0.00 h 0 W/m 13.8 C 14.8 C 2.0 km/h (1 Bft)
14.07.2007 03:00 14.3 C 96 % 1017.5 hPa 0.0 l/m 0.5 km/h (0 Bft) O-SO 0.00 h 0 W/m 13.7 C 14.3 C 1.0 km/h (0 Bft)
14.07.2007 04:00 13.8 C 97 % 1017.6 hPa 0.0 l/m 0.3 km/h (0 Bft) O-SO 0.00 h 0 W/m 13.3 C 13.8 C 0.9 km/h (0 Bft)
14.07.2007 05:00 13.5 C 98 % 1017.8 hPa 0.0 l/m 0.0 km/h (0 Bft) N 0.00 h 7 W/m 13.1 C 13.5 C 0.1 km/h (0 Bft)
14.07.2007 06:00 13.5 C 99 % 1018.0 hPa 0.0 l/m 0.0 km/h (0 Bft) N 0.00 h 21 W/m 13.3 C 13.5 C 0.0 km/h (0 Bft)
14.07.2007 07:00 15.0 C 96 % 1018.3 hPa 0.0 l/m 0.0 km/h (0 Bft) N 0.87 h 177 W/m 14.3 C 15.0 C 0.1 km/h (0 Bft)
14.07.2007 08:00 17.9 C 84 % 1018.5 hPa 0.0 l/m 0.2 km/h (0 Bft) O 1.00 h 340 W/m 15.1 C 17.9 C 0.7 km/h (0 Bft)
14.07.2007 09:00 21.0 C 72 % 1018.6 hPa 0.0 l/m 1.6 km/h (1 Bft) N 1.00 h 505 W/m 15.8 C 21.0 C 4.0 km/h (1 Bft)
14.07.2007 10:00 23.8 C 62 % 1018.4 hPa 0.0 l/m 3.5 km/h (1 Bft) S-SO 1.00 h 647 W/m 16.0 C 23.8 C 7.5 km/h (2 Bft)
14.07.2007 11:00 25.8 C 58 % 1018.4 hPa 0.0 l/m 2.7 km/h (1 Bft) S 1.00 h 754 W/m 16.9 C 25.8 C 5.8 km/h (2 Bft)
14.07.2007 12:00 27.6 C 53 % 1018.2 hPa 0.0 l/m 3.1 km/h (1 Bft) S-SO 1.00 h 829 W/m 17.2 C 27.6 C 5.8 km/h (2 Bft)
14.07.2007 13:00 28.9 C 45 % 1017.7 hPa 0.0 l/m 4.1 km/h (1 Bft) SO 1.00 h 865 W/m 15.6 C 28.9 C 7.2 km/h (2 Bft)
14.07.2007 14:00 30.3 C 41 % 1017.2 hPa 0.0 l/m 4.1 km/h (1 Bft) W 1.00 h 842 W/m 15.5 C 30.3 C 8.3 km/h (2 Bft)
14.07.2007 15:00 31.0 C 35 % 1016.9 hPa 0.0 l/m 4.1 km/h (1 Bft) W-SW 1.00 h 777 W/m 13.7 C 31.0 C 7.3 km/h (2 Bft)
14.07.2007 16:00 31.5 C 35 % 1016.8 hPa 0.0 l/m 3.4 km/h (1 Bft) W-SW 1.00 h 665 W/m 14.0 C 31.5 C 6.5 km/h (2 Bft)
14.07.2007 17:00 31.7 C 34 % 1016.7 hPa 0.0 l/m 3.1 km/h (1 Bft) W 1.00 h 519 W/m 13.7 C 31.7 C 5.3 km/h (1 Bft)
14.07.2007 18:00 31.1 C 36 % 1016.5 hPa 0.0 l/m 1.9 km/h (1 Bft) W-SW 1.00 h 355 W/m 14.3 C 31.1 C 4.0 km/h (1 Bft)
14.07.2007 19:00 30.1 C 38 % 1016.5 hPa 0.0 l/m 0.8 km/h (0 Bft) S-SO 0.93 h 190 W/m 14.0 C 30.1 C 2.4 km/h (1 Bft)
14.07.2007 20:00 26.8 C 57 % 1016.4 hPa 0.0 l/m 2.9 km/h (1 Bft) O-SO 0.00 h 49 W/m 17.5 C 26.8 C 4.3 km/h (1 Bft)
14.07.2007 21:00 22.9 C 69 % 1016.7 hPa 0.0 l/m 4.6 km/h (1 Bft) O-SO 0.00 h 8 W/m 17.0 C 22.9 C 5.8 km/h (1 Bft)
14.07.2007 22:00 20.6 C 76 % 1017.2 hPa 0.0 l/m 2.8 km/h (1 Bft) O-SO 0.00 h 0 W/m 16.2 C 20.6 C 3.9 km/h (1 Bft)
14.07.2007 23:00 18.9 C 79 % 1017.2 hPa 0.0 l/m 2.3 km/h (1 Bft) O-SO 0.00 h 0 W/m 15.3 C 18.9 C 3.3 km/h (1 Bft)
15.07.2007 00:00 17.7 C 83 % 1017.6 hPa 0.0 l/m 1.7 km/h (1 Bft) O-SO 0.00 h 0 W/m 14.7 C 17.7 C 2.8 km/h (1 Bft)
15.07.2007 01:00 17.2 C 84 % 1017.6 hPa 0.0 l/m 2.1 km/h (1 Bft) O-SO 0.00 h 0 W/m 14.4 C 17.2 C 3.5 km/h (1 Bft)
15.07.2007 02:00 16.5 C 86 % 1017.3 hPa 0.0 l/m 1.0 km/h (0 Bft) O 0.00 h 0 W/m 14.2 C 16.5 C 2.0 km/h (1 Bft)
15.07.2007 03:00 15.8 C 89 % 1017.1 hPa 0.0 l/m 1.4 km/h (1 Bft) O 0.00 h 0 W/m 14.0 C 15.8 C 2.6 km/h (1 Bft)
15.07.2007 04:00 15.1 C 92 % 1017.0 hPa 0.0 l/m 1.2 km/h (1 Bft) O 0.00 h 0 W/m 13.7 C 15.1 C 2.1 km/h (1 Bft)
15.07.2007 05:00 15.1 C 92 % 1017.0 hPa 0.0 l/m 1.0 km/h (0 Bft) O 0.00 h 7 W/m 13.9 C 15.1 C 2.1 km/h (1 Bft)
15.07.2007 06:00 15.0 C 94 % 1016.9 hPa 0.0 l/m 0.2 km/h (0 Bft) O 0.00 h 21 W/m 14.1 C 15.0 C 0.6 km/h (0 Bft)
15.07.2007 07:00 16.8 C 90 % 1017.0 hPa 0.0 l/m 0.0 km/h (0 Bft) N 0.80 h 162 W/m 15.1 C 16.8 C 0.5 km/h (0 Bft)
15.07.2007 08:00 19.3 C 81 % 1017.0 hPa 0.0 l/m 0.0 km/h (0 Bft) N 1.00 h 329 W/m 16.0 C 19.3 C 0.5 km/h (0 Bft)
15.07.2007 09:00 22.4 C 71 % 1016.7 hPa 0.0 l/m 0.7 km/h (0 Bft) O-SO 1.00 h 492 W/m 16.8 C 22.4 C 2.4 km/h (1 Bft)
15.07.2007 10:00 24.6 C 61 % 1016.6 hPa 0.0 l/m 3.8 km/h (1 Bft) S-SO 1.00 h 634 W/m 16.6 C 24.6 C 7.7 km/h (2 Bft)
15.07.2007 11:00 26.6 C 56 % 1016.3 hPa 0.0 l/m 3.4 km/h (1 Bft) SO 1.00 h 750 W/m 17.0 C 26.6 C 6.6 km/h (2 Bft)
15.07.2007 12:00 28.3 C 51 % 1015.9 hPa 0.0 l/m 2.3 km/h (1 Bft) S-SO 1.00 h 828 W/m 17.3 C 28.3 C 4.8 km/h (1 Bft)
15.07.2007 13:00 29.7 C 49 % 1015.4 hPa 0.0 l/m 2.7 km/h (1 Bft) W-SW 1.00 h 854 W/m 17.8 C 29.7 C 5.8 km/h (1 Bft)
15.07.2007 14:00 31.2 C 47 % 1014.8 hPa 0.0 l/m 2.8 km/h (1 Bft) W-NW 1.00 h 834 W/m 18.6 C 31.2 C 5.0 km/h (1 Bft)
15.07.2007 15:00 32.3 C 43 % 1014.2 hPa 0.0 l/m 2.5 km/h (1 Bft) W-SW 1.00 h 769 W/m 18.1 C 32.3 C 5.0 km/h (1 Bft)
15.07.2007 16:00 33.1 C 40 % 1013.7 hPa 0.0 l/m 2.6 km/h (1 Bft) W-SW 1.00 h 665 W/m 17.5 C 33.1 C 4.6 km/h (1 Bft)
15.07.2007 17:00 33.5 C 35 % 1013.2 hPa 0.0 l/m 2.4 km/h (1 Bft) W 1.00 h 530 W/m 16.0 C 33.5 C 4.2 km/h (1 Bft)
15.07.2007 18:00 33.5 C 33 % 1012.8 hPa 0.0 l/m 2.4 km/h (1 Bft) W-SW 1.00 h 365 W/m 15.0 C 33.5 C 4.2 km/h (1 Bft)
15.07.2007 19:00 31.8 C 42 % 1012.5 hPa 0.0 l/m 0.7 km/h (0 Bft) W-SW 1.00 h 199 W/m 17.1 C 31.8 C 2.4 km/h (1 Bft)
15.07.2007 20:00 29.3 C 52 % 1012.3 hPa 0.0 l/m 1.2 km/h (1 Bft) O-SO 0.13 h 54 W/m 18.2 C 29.3 C 1.9 km/h (1 Bft)
15.07.2007 21:00 24.9 C 69 % 1012.8 hPa 0.0 l/m 2.3 km/h (1 Bft) O-SO 0.02 h 8 W/m 18.9 C 24.9 C 3.3 km/h (1 Bft)
15.07.2007 22:00 22.6 C 76 % 1013.5 hPa 0.0 l/m 1.9 km/h (1 Bft) O-SO 0.00 h 0 W/m 18.0 C 22.6 C 3.2 km/h (1 Bft)
15.07.2007 23:00 20.7 C 82 % 1014.0 hPa 0.0 l/m 1.9 km/h (1 Bft) SO 0.00 h 0 W/m 17.5 C 20.7 C 2.9 km/h (1 Bft)
Min-Datum _ 10.07.07 15.07.07 15.07.07 - 09.07.07 - - - 10.07.07 10.07.07 09.07.07
_ Min-Zeit 03:45 18:06 20:30 - 00:32 - - - 16:32 03:48 00:41
Minimum _ 9.9 C 28 % 1012.2 hPa - 0.0 km/h (0 Bft) - - - 8.5 C 8.7 C 0.0 km/h (0 Bft)
Max-Datum _ 15.07.07 11.07.07 12.07.07 11.07.07 10.07.07 - 09.07.07 11.07.07 15.07.07 15.07.07 10.07.07
_ Max-Zeit 18:17 01:43 12:15 13:20 13:27 - 15:47 12:08 15:49 18:17 16:42
Maximum _ 34.0 C 99 % 1021.1 hPa 5.6 l/m 25.0 km/h
W (4 Bft)
- 0.02 h 1148 W/m 21.3 C 34.0 C 36.5 km/h
W (5 Bft)
Durchschnitt _ 17.4 C 80 % 1016.9 hPa #23.4 l/m 2.8 km/h (1 Bft) W #46:31 h 312 W/m 13.3 C 17.4 C 5.1 km/h (1 Bft)
© Kaiko 2007